Mercini Lady — A8DL4 — position and weather

sailwx.info

Track history (hours):
 
Tides and Currents Weather Stations Pressure Air Temp Water Temp Dewpoint Dewpoint Depression Visibility Wind Speed Wind Dir Waves Ship Positions

Mercini Lady

Last reported at 2017-Jul-13 06:51 UTC. Time now 2017-Aug-16 21:39 UTC.
Position N 01°18' E 103°21'.
Warning: this ship's position is 34 days out of date.

Length 182 m; draft 11.5 m.

Type: Tanker. MMSI: 636012102.

Date/timePositionNaut miles runAvg speedWind from/ knotsBaromVisibWave heightAir tempDewpointWater temp
2017-Jul-13 06:51N 01°18' E 103°21'3 9.7
2017-Jul-13 06:31N 01°15' E 103°24'5 9.6
2017-Jul-13 06:00N 01°13' E 103°28'510.0
2017-Jul-13 05:31N 01°12' E 103°33'5 9.2
2017-Jul-13 05:01N 01°12' E 103°37'3 5.9
2017-Jul-13 04:30N 01°11' E 103°40'2 4.0
2017-Jul-13 04:00N 01°11' E 103°42'0 0.0
2017-Jul-13 03:25N 01°11' E 103°42'0 0.0
2017-Jul-13 02:55N 01°11' E 103°42'0 0.1
2017-Jul-13 02:28N 01°11' E 103°42'0 0.0
2017-Jul-13 01:59N 01°11' E 103°42'0 0.0
2017-Jul-13 01:29N 01°11' E 103°42'0 0.0
2017-Jul-13 00:59N 01°11' E 103°42'0 0.0
2017-Jul-13 00:29N 01°11' E 103°42'0 0.0
2017-Jul-12 23:57N 01°11' E 103°42'0 0.0
2017-Jul-12 23:30N 01°11' E 103°42'0 0.0
2017-Jul-12 22:57N 01°11' E 103°42'0 0.0
2017-Jul-12 22:27N 01°11' E 103°42'0 0.0
2017-Jul-12 21:58N 01°11' E 103°42'0 0.0
2017-Jul-12 21:28N 01°11' E 103°42'0 0.0
2017-Jul-12 20:58N 01°11' E 103°42'0 0.0
2017-Jul-12 20:28N 01°11' E 103°42'0 0.0
2017-Jul-12 19:59N 01°11' E 103°42'0 0.0
2017-Jul-12 19:29N 01°11' E 103°42'0 0.1
2017-Jul-12 18:56N 01°11' E 103°42'0 0.0
2017-Jul-12 18:29N 01°11' E 103°42'0 0.0
2017-Jul-12 17:54N 01°11' E 103°42'0 0.0
2017-Jul-12 17:30N 01°11' E 103°42'0 0.0
2017-Jul-12 17:00N 01°11' E 103°42'0 0.0
2017-Jul-12 16:30N 01°11' E 103°42'0 0.1
2017-Jul-12 15:55N 01°11' E 103°42'0 0.1
2017-Jul-12 15:28N 01°11' E 103°42'0 0.0
2017-Jul-12 14:58N 01°11' E 103°42'0 0.0
2017-Jul-12 13:59N 01°11' E 103°42'0 0.2
2017-Jul-12 13:29N 01°11' E 103°42'0 0.0
2017-Jul-12 12:56N 01°11' E 103°42'0 0.1
2017-Jul-12 12:30N 01°11' E 103°42'0 0.0
2017-Jul-12 12:00N 01°11' E 103°42'0 0.1
2017-Jul-12 11:24N 01°11' E 103°42'0 0.0
2017-Jul-12 11:00N 01°11' E 103°42'0 0.1
2017-Jul-12 10:25N 01°11' E 103°42'0 0.0
2017-Jul-12 09:55N 01°11' E 103°42'0 0.2
2017-Jul-12 09:30N 01°11' E 103°42'2 3.2
2017-Jul-12 09:00N 01°13' E 103°41'4 8.8
2017-Jul-12 08:30N 01°16' E 103°44'2 3.3
2017-Jul-12 08:00N 01°17' E 103°44'0 0.1
2017-Jul-12 07:27N 01°17' E 103°44'0 0.0
2017-Jul-12 07:00N 01°17' E 103°44'0 0.0
2017-Jul-12 06:28N 01°17' E 103°44'0 0.0
2017-Jul-12 05:58N 01°17' E 103°44'0 0.0
2017-Jul-12 05:28N 01°17' E 103°44'0 0.0
2017-Jul-12 04:58N 01°17' E 103°44'0 0.0
2017-Jul-12 04:28N 01°17' E 103°44'0 0.0
2017-Jul-12 03:58N 01°17' E 103°44'0 0.0
2017-Jul-12 03:29N 01°17' E 103°44'0 0.0
2017-Jul-12 02:59N 01°17' E 103°44'0 0.0
2017-Jul-12 02:26N 01°17' E 103°44'0 0.0
2017-Jul-12 01:57N 01°17' E 103°44'0 0.0
2017-Jul-12 01:27N 01°17' E 103°44'0 0.0
2017-Jul-12 01:00N 01°17' E 103°44'0 0.0
2017-Jul-12 00:30N 01°17' E 103°44'0 0.0
2017-Jul-11 23:58N 01°17' E 103°44'0 0.0
2017-Jul-11 23:28N 01°17' E 103°44'0 0.0
2017-Jul-11 22:58N 01°17' E 103°44'0 0.0
2017-Jul-11 22:28N 01°17' E 103°44'0 0.0
2017-Jul-11 21:59N 01°17' E 103°44'0 0.0
2017-Jul-11 21:29N 01°17' E 103°44'0 0.0
2017-Jul-11 20:56N 01°17' E 103°44'0 0.0
2017-Jul-11 20:30N 01°17' E 103°44'0 0.0
2017-Jul-11 19:57N 01°17' E 103°44'0 0.0
2017-Jul-11 19:30N 01°17' E 103°44'0 0.0
2017-Jul-11 19:00N 01°17' E 103°44'0 0.0
2017-Jul-11 18:28N 01°17' E 103°44'0 0.0
2017-Jul-11 17:58N 01°17' E 103°44'0 0.0
2017-Jul-11 17:28N 01°17' E 103°44'0 0.0
2017-Jul-11 16:58N 01°17' E 103°44'0 0.0
2017-Jul-11 16:29N 01°17' E 103°44'0 0.0
2017-Jul-11 15:59N 01°17' E 103°44'0 0.0
2017-Jul-11 15:29N 01°17' E 103°44'0 0.0
2017-Jul-11 14:57N 01°17' E 103°44'0 0.0
2017-Jul-11 14:30N 01°17' E 103°44'0 0.0
2017-Jul-11 14:00N 01°17' E 103°44'0 0.0
2017-Jul-11 13:30N 01°17' E 103°44'0 0.0
2017-Jul-11 12:58N 01°17' E 103°44'0 0.0
2017-Jul-11 12:28N 01°17' E 103°44'0 0.0
2017-Jul-11 11:58N 01°17' E 103°44'0 0.0
2017-Jul-11 11:28N 01°17' E 103°44'0 0.0
2017-Jul-11 10:59N 01°17' E 103°44'0 0.0
2017-Jul-11 10:23N 01°17' E 103°44'0 0.0
2017-Jul-11 09:56N 01°17' E 103°44'0 0.0
2017-Jul-11 09:30N 01°17' E 103°44'0 0.0
2017-Jul-11 08:57N 01°17' E 103°44'0 0.0
2017-Jul-11 08:30N 01°17' E 103°44'0 0.0
2017-Jul-11 08:00N 01°17' E 103°44'0 0.0
2017-Jul-11 07:31N 01°17' E 103°44'0 0.0
2017-Jul-11 06:58N 01°17' E 103°44'0 0.0
2017-Jul-11 06:28N 01°17' E 103°44'0 0.0
2017-Jul-11 05:58N 01°17' E 103°44'0 0.0
2017-Jul-11 05:29N 01°17' E 103°44'0 0.0
2017-Jul-11 04:59N 01°17' E 103°44'0 0.0
2017-Jul-11 04:29N 01°17' E 103°44'0 0.0
2017-Jul-11 03:56N 01°17' E 103°44'0 0.0
2017-Jul-11 03:29N 01°17' E 103°44'0 0.0
2017-Jul-11 03:00N 01°17' E 103°44'0 0.0
2017-Jul-11 02:30N 01°17' E 103°44'0 0.0
2017-Jul-11 02:00N 01°17' E 103°44'0 0.0
2017-Jul-11 01:31N 01°17' E 103°44'0 0.0
2017-Jul-11 00:58N 01°17' E 103°44'0 0.0
2017-Jul-11 00:28N 01°17' E 103°44'0 0.0
2017-Jul-10 23:58N 01°17' E 103°44'0 0.0
2017-Jul-10 23:29N 01°17' E 103°44'0 0.0
2017-Jul-10 22:56N 01°17' E 103°44'0 0.0
2017-Jul-10 22:29N 01°17' E 103°44'0 0.0
2017-Jul-10 21:56N 01°17' E 103°44'0 0.0
2017-Jul-10 21:30N 01°17' E 103°44'0 0.0
2017-Jul-10 21:00N 01°17' E 103°44'0 0.0
2017-Jul-10 20:30N 01°17' E 103°44'0 0.0
2017-Jul-10 20:00N 01°17' E 103°44'0 0.0
2017-Jul-10 19:28N 01°17' E 103°44'1 1.4
2017-Jul-10 19:00N 01°17' E 103°44'4 7.1
2017-Jul-10 18:31N 01°15' E 103°47'4 8.3
2017-Jul-10 18:01N 01°12' E 103°50'5 9.7
2017-Jul-10 17:30N 01°14' E 103°55'711.1
2017-Jul-10 16:53N 01°16' E 104°02'410.7
2017-Jul-10 16:29N 01°18' E 104°05'13 8.7
2017-Jul-10 15:01N 01°25' E 103°55'2 9.3
2017-Jul-10 14:51N 01°26' E 103°53'6 0.3
2017-Jul-09 17:20N 01°28' E 103°48'1 1.6
2017-Jul-09 16:54N 01°29' E 103°48'3 4.1
2017-Jul-09 16:04N 01°28' E 103°51'1 7.1
2017-Jul-09 15:58N 01°27' E 103°52'13 9.1
2017-Jul-09 14:32N 01°21' E 104°04'010.8
2017-Jul-09 14:30N 01°21' E 104°04'1 0.5
2017-Jul-09 12:15N 01°20' E 104°04'0 0.0
2017-Jul-09 12:00N 01°20' E 104°04'0 0.0
2017-Jul-09 11:27N 01°20' E 104°04'1 1.9
2017-Jul-09 11:00N 01°19' E 104°04'6 3.8
2017-Jul-09 09:23N 01°15' E 104°00'411.7
2017-Jul-09 09:00N 01°13' E 103°56'611.3
2017-Jul-09 08:30N 01°11' E 103°51'510.2
2017-Jul-09 08:00N 01°08' E 103°46'611.3
2017-Jul-09 07:30N 01°04' E 103°42'611.1
2017-Jul-09 06:59N 01°04' E 103°36'613.5
2017-Jul-09 06:30N 01°07' E 103°31'714.2
2017-Jul-09 06:00N 01°11' E 103°25'  
Track history (hours):
 
Tides and Currents Weather Stations Pressure Air Temp Water Temp Dewpoint Dewpoint Depression Visibility Wind Speed Wind Dir Waves Ship Positions

Mercini Lady

Last reported at 2017-Jul-13 06:51 UTC. Time now 2017-Aug-16 21:40 UTC.
Position N 01°18' E 103°21'.
Warning: this ship's position is 34 days out of date.

Length 182 m; draft 11.5 m.

Type: Tanker. MMSI: 636012102.

Date/timePositionNaut miles runAvg speedWind from/ knotsBaromVisibWave heightAir tempDewpointWater temp
2017-Jul-13 06:51N 01°18' E 103°21'3 9.7
2017-Jul-13 06:31N 01°15' E 103°24'5 9.6
2017-Jul-13 06:00N 01°13' E 103°28'510.0
2017-Jul-13 05:31N 01°12' E 103°33'5 9.2
2017-Jul-13 05:01N 01°12' E 103°37'3 5.9
2017-Jul-13 04:30N 01°11' E 103°40'2 4.0
2017-Jul-13 04:00N 01°11' E 103°42'0 0.0
2017-Jul-13 03:25N 01°11' E 103°42'0 0.0
2017-Jul-13 02:55N 01°11' E 103°42'0 0.1
2017-Jul-13 02:28N 01°11' E 103°42'0 0.0
2017-Jul-13 01:59N 01°11' E 103°42'0 0.0
2017-Jul-13 01:29N 01°11' E 103°42'0 0.0
2017-Jul-13 00:59N 01°11' E 103°42'0 0.0
2017-Jul-13 00:29N 01°11' E 103°42'0 0.0
2017-Jul-12 23:57N 01°11' E 103°42'0 0.0
2017-Jul-12 23:30N 01°11' E 103°42'0 0.0
2017-Jul-12 22:57N 01°11' E 103°42'0 0.0
2017-Jul-12 22:27N 01°11' E 103°42'0 0.0
2017-Jul-12 21:58N 01°11' E 103°42'0 0.0
2017-Jul-12 21:28N 01°11' E 103°42'0 0.0
2017-Jul-12 20:58N 01°11' E 103°42'0 0.0
2017-Jul-12 20:28N 01°11' E 103°42'0 0.0
2017-Jul-12 19:59N 01°11' E 103°42'0 0.0
2017-Jul-12 19:29N 01°11' E 103°42'0 0.1
2017-Jul-12 18:56N 01°11' E 103°42'0 0.0
2017-Jul-12 18:29N 01°11' E 103°42'0 0.0
2017-Jul-12 17:54N 01°11' E 103°42'0 0.0
2017-Jul-12 17:30N 01°11' E 103°42'0 0.0
2017-Jul-12 17:00N 01°11' E 103°42'0 0.0
2017-Jul-12 16:30N 01°11' E 103°42'0 0.1
2017-Jul-12 15:55N 01°11' E 103°42'0 0.1
2017-Jul-12 15:28N 01°11' E 103°42'0 0.0
2017-Jul-12 14:58N 01°11' E 103°42'0 0.0
2017-Jul-12 13:59N 01°11' E 103°42'0 0.2
2017-Jul-12 13:29N 01°11' E 103°42'0 0.0
2017-Jul-12 12:56N 01°11' E 103°42'0 0.1
2017-Jul-12 12:30N 01°11' E 103°42'0 0.0
2017-Jul-12 12:00N 01°11' E 103°42'0 0.1
2017-Jul-12 11:24N 01°11' E 103°42'0 0.0
2017-Jul-12 11:00N 01°11' E 103°42'0 0.1
2017-Jul-12 10:25N 01°11' E 103°42'0 0.0
2017-Jul-12 09:55N 01°11' E 103°42'0 0.2
2017-Jul-12 09:30N 01°11' E 103°42'2 3.2
2017-Jul-12 09:00N 01°13' E 103°41'4 8.8
2017-Jul-12 08:30N 01°16' E 103°44'2 3.3
2017-Jul-12 08:00N 01°17' E 103°44'0 0.1
2017-Jul-12 07:27N 01°17' E 103°44'0 0.0
2017-Jul-12 07:00N 01°17' E 103°44'0 0.0
2017-Jul-12 06:28N 01°17' E 103°44'0 0.0
2017-Jul-12 05:58N 01°17' E 103°44'0 0.0
2017-Jul-12 05:28N 01°17' E 103°44'0 0.0
2017-Jul-12 04:58N 01°17' E 103°44'0 0.0
2017-Jul-12 04:28N 01°17' E 103°44'0 0.0
2017-Jul-12 03:58N 01°17' E 103°44'0 0.0
2017-Jul-12 03:29N 01°17' E 103°44'0 0.0
2017-Jul-12 02:59N 01°17' E 103°44'0 0.0
2017-Jul-12 02:26N 01°17' E 103°44'0 0.0
2017-Jul-12 01:57N 01°17' E 103°44'0 0.0
2017-Jul-12 01:27N 01°17' E 103°44'0 0.0
2017-Jul-12 01:00N 01°17' E 103°44'0 0.0
2017-Jul-12 00:30N 01°17' E 103°44'0 0.0
2017-Jul-11 23:58N 01°17' E 103°44'0 0.0
2017-Jul-11 23:28N 01°17' E 103°44'0 0.0
2017-Jul-11 22:58N 01°17' E 103°44'0 0.0
2017-Jul-11 22:28N 01°17' E 103°44'0 0.0
2017-Jul-11 21:59N 01°17' E 103°44'0 0.0
2017-Jul-11 21:29N 01°17' E 103°44'0 0.0
2017-Jul-11 20:56N 01°17' E 103°44'0 0.0
2017-Jul-11 20:30N 01°17' E 103°44'0 0.0
2017-Jul-11 19:57N 01°17' E 103°44'0 0.0
2017-Jul-11 19:30N 01°17' E 103°44'0 0.0
2017-Jul-11 19:00N 01°17' E 103°44'0 0.0
2017-Jul-11 18:28N 01°17' E 103°44'0 0.0
2017-Jul-11 17:58N 01°17' E 103°44'0 0.0
2017-Jul-11 17:28N 01°17' E 103°44'0 0.0
2017-Jul-11 16:58N 01°17' E 103°44'0 0.0
2017-Jul-11 16:29N 01°17' E 103°44'0 0.0
2017-Jul-11 15:59N 01°17' E 103°44'0 0.0
2017-Jul-11 15:29N 01°17' E 103°44'0 0.0
2017-Jul-11 14:57N 01°17' E 103°44'0 0.0
2017-Jul-11 14:30N 01°17' E 103°44'0 0.0
2017-Jul-11 14:00N 01°17' E 103°44'0 0.0
2017-Jul-11 13:30N 01°17' E 103°44'0 0.0
2017-Jul-11 12:58N 01°17' E 103°44'0 0.0
2017-Jul-11 12:28N 01°17' E 103°44'0 0.0
2017-Jul-11 11:58N 01°17' E 103°44'0 0.0
2017-Jul-11 11:28N 01°17' E 103°44'0 0.0
2017-Jul-11 10:59N 01°17' E 103°44'0 0.0
2017-Jul-11 10:23N 01°17' E 103°44'0 0.0
2017-Jul-11 09:56N 01°17' E 103°44'0 0.0
2017-Jul-11 09:30N 01°17' E 103°44'0 0.0
2017-Jul-11 08:57N 01°17' E 103°44'0 0.0
2017-Jul-11 08:30N 01°17' E 103°44'0 0.0
2017-Jul-11 08:00N 01°17' E 103°44'0 0.0
2017-Jul-11 07:31N 01°17' E 103°44'0 0.0
2017-Jul-11 06:58N 01°17' E 103°44'0 0.0
2017-Jul-11 06:28N 01°17' E 103°44'0 0.0
2017-Jul-11 05:58N 01°17' E 103°44'0 0.0
2017-Jul-11 05:29N 01°17' E 103°44'0 0.0
2017-Jul-11 04:59N 01°17' E 103°44'0 0.0
2017-Jul-11 04:29N 01°17' E 103°44'0 0.0
2017-Jul-11 03:56N 01°17' E 103°44'0 0.0
2017-Jul-11 03:29N 01°17' E 103°44'0 0.0
2017-Jul-11 03:00N 01°17' E 103°44'0 0.0
2017-Jul-11 02:30N 01°17' E 103°44'0 0.0
2017-Jul-11 02:00N 01°17' E 103°44'0 0.0
2017-Jul-11 01:31N 01°17' E 103°44'0 0.0
2017-Jul-11 00:58N 01°17' E 103°44'0 0.0
2017-Jul-11 00:28N 01°17' E 103°44'0 0.0
2017-Jul-10 23:58N 01°17' E 103°44'0 0.0
2017-Jul-10 23:29N 01°17' E 103°44'0 0.0
2017-Jul-10 22:56N 01°17' E 103°44'0 0.0
2017-Jul-10 22:29N 01°17' E 103°44'0 0.0
2017-Jul-10 21:56N 01°17' E 103°44'0 0.0
2017-Jul-10 21:30N 01°17' E 103°44'0 0.0
2017-Jul-10 21:00N 01°17' E 103°44'0 0.0
2017-Jul-10 20:30N 01°17' E 103°44'0 0.0
2017-Jul-10 20:00N 01°17' E 103°44'0 0.0
2017-Jul-10 19:28N 01°17' E 103°44'1 1.4
2017-Jul-10 19:00N 01°17' E 103°44'4 7.1
2017-Jul-10 18:31N 01°15' E 103°47'4 8.3
2017-Jul-10 18:01N 01°12' E 103°50'5 9.7
2017-Jul-10 17:30N 01°14' E 103°55'711.1
2017-Jul-10 16:53N 01°16' E 104°02'410.7
2017-Jul-10 16:29N 01°18' E 104°05'13 8.7
2017-Jul-10 15:01N 01°25' E 103°55'2 9.3
2017-Jul-10 14:51N 01°26' E 103°53'6 0.3
2017-Jul-09 17:20N 01°28' E 103°48'1 1.6
2017-Jul-09 16:54N 01°29' E 103°48'3 4.1
2017-Jul-09 16:04N 01°28' E 103°51'1 7.1
2017-Jul-09 15:58N 01°27' E 103°52'13 9.1
2017-Jul-09 14:32N 01°21' E 104°04'010.8
2017-Jul-09 14:30N 01°21' E 104°04'1 0.5
2017-Jul-09 12:15N 01°20' E 104°04'0 0.0
2017-Jul-09 12:00N 01°20' E 104°04'0 0.0
2017-Jul-09 11:27N 01°20' E 104°04'1 1.9
2017-Jul-09 11:00N 01°19' E 104°04'6 3.8
2017-Jul-09 09:23N 01°15' E 104°00'411.7
2017-Jul-09 09:00N 01°13' E 103°56'611.3
2017-Jul-09 08:30N 01°11' E 103°51'510.2
2017-Jul-09 08:00N 01°08' E 103°46'611.3
2017-Jul-09 07:30N 01°04' E 103°42'611.1
2017-Jul-09 06:59N 01°04' E 103°36'613.5
2017-Jul-09 06:30N 01°07' E 103°31'714.2
2017-Jul-09 06:00N 01°11' E 103°25'  

Dump ship's entire track history